Time;durP1;ratioP1;P1;durP2;ratioP2;P2;SDS_P1;SDS_P2;PMS_P1;PMS_P2;Temp;Humidity;BMP_temperature;BMP_pressure;BME280_temperature;BME280_humidity;BME280_pressure;Samples;Min_cycle;Max_cycle;Signal;HPM_P1;HPM_P2
2022/01/31 00:01:59;;;;;;;2.15;2.05;;;6.60;59.00;;;;;;5082536;28;20209;-75
2022/01/31 00:04:26;;;;;;;2.03;1.92;;;6.60;58.70;;;;;;5072710;28;20675;-74
2022/01/31 00:06:53;;;;;;;2.47;2.38;;;6.50;59.00;;;;;;5073070;28;20199;-74
2022/01/31 00:09:22;;;;;;;1.85;1.75;;;6.50;59.50;;;;;;5073007;28;20214;-75
2022/01/31 00:11:58;;;;;;;2.15;2.05;;;6.40;59.60;;;;;;5074194;28;20206;-74
2022/01/31 00:14:38;;;;;;;1.48;1.48;;;6.40;59.60;;;;;;5071442;28;20223;-75
2022/01/31 00:17:06;;;;;;;2.03;1.92;;;6.30;59.80;;;;;;5069626;28;20705;-75
2022/01/31 00:19:34;;;;;;;2.08;1.98;;;6.20;60.10;;;;;;5071340;28;20216;-74
2022/01/31 00:22:01;;;;;;;1.65;1.60;;;6.20;61.10;;;;;;5067351;28;20290;-74
2022/01/31 00:24:28;;;;;;;1.70;1.60;;;6.20;61.70;;;;;;5068316;28;20230;-75
2022/01/31 00:26:57;;;;;;;1.65;1.60;;;6.20;60.50;;;;;;5066912;28;20190;-74
2022/01/31 00:29:24;;;;;;;1.80;1.80;;;6.10;60.90;;;;;;5072969;28;20702;-74
2022/01/31 00:31:51;;;;;;;1.70;1.60;;;6.10;61.70;;;;;;5071441;28;20202;-74
2022/01/31 00:34:18;;;;;;;1.77;1.67;;;6.10;60.60;;;;;;5069476;28;20632;-75
2022/01/31 00:36:45;;;;;;;2.10;2.00;;;6.10;59.90;;;;;;5069891;28;20194;-75
2022/01/31 00:39:12;;;;;;;1.40;1.30;;;6.00;60.70;;;;;;5069241;28;20214;-74
2022/01/31 00:41:39;;;;;;;1.98;1.88;;;6.00;60.10;;;;;;5069135;28;20273;-75
2022/01/31 00:44:17;;;;;;;2.00;1.90;;;6.00;61.10;;;;;;5067602;28;20214;-75
2022/01/31 00:46:50;;;;;;;1.98;1.88;;;6.00;61.70;;;;;;5066905;28;20735;-75
2022/01/31 00:49:27;;;;;;;2.00;1.90;;;5.90;61.60;;;;;;5044900;28;20222;-74
2022/01/31 00:51:54;;;;;;;1.90;1.80;;;5.90;61.90;;;;;;5049739;28;20747;-74
2022/01/31 00:54:22;;;;;;;2.05;1.95;;;5.90;62.70;;;;;;5052481;28;20264;-74
2022/01/31 00:56:49;;;;;;;1.70;1.60;;;5.90;62.80;;;;;;5055196;28;20581;-74
2022/01/31 00:59:18;;;;;;;1.92;1.83;;;5.90;63.10;;;;;;5046060;28;20279;-74
2022/01/31 01:01:46;;;;;;;1.50;1.40;;;5.80;62.90;;;;;;5051971;28;20682;-73
2022/01/31 01:04:13;;;;;;;1.90;1.80;;;5.90;64.40;;;;;;5052068;28;20223;-75
2022/01/31 01:09:19;;;;;;;1.60;1.60;;;5.90;64.40;;;;;;3389551;26;20394;-84
2022/01/31 01:11:47;;;;;;;1.70;1.70;;;5.90;63.80;;;;;;5095557;28;20214;-84
2022/01/31 01:14:15;;;;;;;2.33;2.22;;;5.90;62.80;;;;;;5101066;28;20190;-85
2022/01/31 01:16:43;;;;;;;1.77;1.67;;;5.80;63.60;;;;;;5099148;28;20221;-84
2022/01/31 01:19:11;;;;;;;1.80;1.80;;;5.80;63.60;;;;;;5102757;28;20218;-84
2022/01/31 01:21:39;;;;;;;2.05;1.95;;;5.70;63.60;;;;;;5085397;28;20222;-83
2022/01/31 01:24:07;;;;;;;2.38;2.28;;;5.60;63.20;;;;;;5079249;28;20276;-83
2022/01/31 01:26:34;;;;;;;1.38;1.38;;;5.60;62.50;;;;;;5080405;28;20228;-85
2022/01/31 01:29:03;;;;;;;2.08;1.98;;;5.50;62.80;;;;;;5061135;28;20197;-84
2022/01/31 01:31:32;;;;;;;1.92;1.83;;;5.40;63.10;;;;;;5076195;28;20222;-84
2022/01/31 01:34:02;;;;;;;2.15;2.05;;;5.40;63.40;;;;;;5079436;28;20202;-86
2022/01/31 01:36:31;;;;;;;1.90;1.80;;;5.40;64.20;;;;;;5075707;28;20248;-84
2022/01/31 01:38:58;;;;;;;2.17;1.98;;;5.40;64.20;;;;;;5083030;28;20218;-84
2022/01/31 01:41:25;;;;;;;2.15;2.05;;;5.40;64.20;;;;;;5083009;28;20222;-84
2022/01/31 01:43:52;;;;;;;2.00;1.90;;;5.40;64.20;;;;;;5080914;28;20201;-85
2022/01/31 01:46:57;;;;;;;1.90;1.80;;;5.40;64.90;;;;;;5083095;28;20218;-87
2022/01/31 01:53:46;;;;;;;1.98;1.88;;;5.40;65.30;;;;;;5058105;28;20268;-87
2022/01/31 02:06:40;;;;;;;2.30;2.20;;;5.30;64.90;;;;;;5073522;28;20238;-86
2022/01/31 02:09:09;;;;;;;2.33;2.22;;;5.20;64.70;;;;;;5112271;28;20208;-86
2022/01/31 02:11:36;;;;;;;1.98;1.88;;;5.20;64.10;;;;;;5093155;28;20247;-86
2022/01/31 02:14:05;;;;;;;1.67;1.58;;;5.20;63.70;;;;;;5111266;28;20200;-86
2022/01/31 02:16:32;;;;;;;1.70;1.70;;;5.20;64.30;;;;;;5103276;27;20223;-85
2022/01/31 02:19:00;;;;;;;1.98;1.88;;;5.20;64.90;;;;;;5132476;27;20237;-85
2022/01/31 02:21:31;;;;;;;1.63;1.63;;;5.20;64.20;;;;;;5109140;28;20198;-86
2022/01/31 02:23:59;;;;;;;2.20;2.10;;;5.20;64.30;;;;;;5108222;28;20226;-85
2022/01/31 02:26:27;;;;;;;1.80;1.70;;;5.20;64.10;;;;;;5108141;28;20283;-85
2022/01/31 02:28:56;;;;;;;2.17;2.08;;;5.20;64.00;;;;;;5108326;28;20194;-85
2022/01/31 02:31:24;;;;;;;1.77;1.70;;;5.30;64.50;;;;;;5100616;28;20639;-84
2022/01/31 02:33:51;;;;;;;2.40;2.30;;;5.30;65.50;;;;;;5108908;28;20201;-85
2022/01/31 02:36:20;;;;;;;1.58;1.58;;;5.40;66.00;;;;;;5101589;28;20217;-84
2022/01/31 02:38:50;;;;;;;1.90;1.80;;;5.40;64.90;;;;;;5099853;28;20556;-86
2022/01/31 02:44:00;;;;;;;1.98;1.88;;;5.50;66.10;;;;;;5106068;28;20198;-85
2022/01/31 02:46:27;;;;;;;2.30;2.20;;;5.50;66.20;;;;;;5114042;28;20202;-85
2022/01/31 02:48:56;;;;;;;2.30;2.20;;;5.50;66.10;;;;;;5106540;28;20194;-86
2022/01/31 02:51:26;;;;;;;2.08;1.98;;;5.50;66.00;;;;;;5103175;28;20224;-86
2022/01/31 02:53:55;;;;;;;1.80;1.80;;;5.50;65.50;;;;;;5107766;28;20263;-85
2022/01/31 02:56:24;;;;;;;2.30;2.20;;;5.50;65.40;;;;;;5109159;28;20591;-85
2022/01/31 02:58:51;;;;;;;1.70;1.70;;;5.50;65.50;;;;;;5102198;28;20233;-85
2022/01/31 03:01:18;;;;;;;1.80;1.70;;;5.40;65.70;;;;;;5101947;28;20196;-86
2022/01/31 03:03:45;;;;;;;1.90;1.90;;;5.40;65.50;;;;;;5102438;28;20793;-83
2022/01/31 03:06:13;;;;;;;1.98;1.90;;;5.30;65.70;;;;;;5094852;28;20647;-83
2022/01/31 03:08:40;;;;;;;1.90;1.80;;;5.30;66.20;;;;;;5116288;27;20227;-83
2022/01/31 03:11:10;;;;;;;2.28;2.17;;;5.30;66.30;;;;;;5098622;28;20204;-84
2022/01/31 03:13:37;;;;;;;2.47;2.38;;;5.30;67.00;;;;;;5096209;28;20217;-82
2022/01/31 03:16:04;;;;;;;2.38;2.28;;;5.20;66.50;;;;;;5100249;28;20186;-84
2022/01/31 03:18:32;;;;;;;2.08;1.98;;;5.10;66.60;;;;;;5100877;28;20222;-83
2022/01/31 03:20:59;;;;;;;2.33;2.22;;;5.00;65.80;;;;;;5096412;28;20205;-83
2022/01/31 03:23:27;;;;;;;2.28;2.17;;;5.00;66.10;;;;;;5105624;28;20228;-85
2022/01/31 03:25:54;;;;;;;1.90;1.80;;;4.90;66.20;;;;;;5104790;28;20197;-84
2022/01/31 03:28:26;;;;;;;1.88;1.77;;;4.80;66.30;;;;;;5105090;28;20217;-84
2022/01/31 03:30:53;;;;;;;1.92;1.83;;;4.80;66.10;;;;;;5108671;28;20190;-84
2022/01/31 03:33:23;;;;;;;2.50;2.40;;;4.70;66.40;;;;;;5101621;28;20221;-85
2022/01/31 03:35:50;;;;;;;2.00;1.90;;;4.80;67.20;;;;;;5100234;28;20198;-85
2022/01/31 03:38:19;;;;;;;2.28;2.17;;;4.80;67.20;;;;;;5104884;28;20220;-85
2022/01/31 03:40:47;;;;;;;1.85;1.80;;;4.90;67.20;;;;;;5104273;28;20222;-84
2022/01/31 03:43:16;;;;;;;1.80;1.80;;;4.90;66.80;;;;;;5104127;28;20241;-84
2022/01/31 03:45:45;;;;;;;2.10;2.00;;;4.90;67.20;;;;;;5093616;28;20189;-83
2022/01/31 03:48:12;;;;;;;1.88;1.85;;;4.90;66.50;;;;;;5095749;28;20220;-83
2022/01/31 03:50:39;;;;;;;2.15;2.08;;;4.90;66.90;;;;;;5099991;28;20555;-83
2022/01/31 03:53:06;;;;;;;1.95;1.85;;;4.90;67.50;;;;;;5099805;28;20225;-82
2022/01/31 03:55:34;;;;;;;2.30;2.20;;;4.90;67.90;;;;;;5097489;28;20239;-82
2022/01/31 03:58:01;;;;;;;2.00;1.90;;;4.90;67.10;;;;;;5094215;28;20221;-81
2022/01/31 04:00:28;;;;;;;1.73;1.73;;;4.90;67.20;;;;;;5091492;28;20221;-82
2022/01/31 04:02:56;;;;;;;1.55;1.55;;;4.90;66.80;;;;;;5099586;28;20224;-82
2022/01/31 04:05:23;;;;;;;1.98;1.88;;;4.90;66.80;;;;;;5102292;28;20198;-83
2022/01/31 04:07:51;;;;;;;1.92;1.83;;;4.90;67.00;;;;;;5094796;28;20254;-82
2022/01/31 04:10:18;;;;;;;2.25;2.15;;;4.80;67.50;;;;;;5095071;28;20219;-82
2022/01/31 04:12:46;;;;;;;1.88;1.88;;;4.90;67.90;;;;;;5097347;28;20214;-81
2022/01/31 04:15:13;;;;;;;2.05;1.98;;;4.80;67.80;;;;;;5096072;28;20189;-83
2022/01/31 04:17:40;;;;;;;2.25;2.15;;;4.80;66.80;;;;;;5097701;28;20217;-82
2022/01/31 04:20:09;;;;;;;1.77;1.77;;;4.90;67.20;;;;;;5098487;28;20231;-82
2022/01/31 04:22:42;;;;;;;1.63;1.60;;;4.90;67.00;;;;;;5095004;28;20631;-82
2022/01/31 04:25:27;;;;;;;1.73;1.65;;;4.90;67.70;;;;;;5098493;28;20193;-83
2022/01/31 04:28:01;;;;;;;2.17;2.08;;;4.90;68.20;;;;;;5096737;28;20593;-84
2022/01/31 04:30:28;;;;;;;1.80;1.80;;;4.90;67.30;;;;;;5091283;28;20730;-83
2022/01/31 04:32:55;;;;;;;2.10;2.00;;;4.90;67.00;;;;;;5100593;28;20649;-83
2022/01/31 04:35:23;;;;;;;2.20;2.10;;;4.80;67.70;;;;;;5098586;28;20259;-83
2022/01/31 04:37:51;;;;;;;2.25;2.15;;;4.80;67.70;;;;;;5098945;28;20589;-83
2022/01/31 04:40:18;;;;;;;2.35;2.25;;;4.80;67.30;;;;;;5094865;28;20209;-84
2022/01/31 04:42:46;;;;;;;2.15;2.05;;;4.80;67.70;;;;;;5100322;28;20586;-84
2022/01/31 04:45:13;;;;;;;2.13;2.03;;;4.80;67.60;;;;;;5102192;28;20194;-84
2022/01/31 04:47:40;;;;;;;2.10;2.00;;;4.80;67.50;;;;;;5096112;28;20287;-84
2022/01/31 04:50:09;;;;;;;2.70;2.60;;;4.80;67.60;;;;;;5104153;28;20203;-84
2022/01/31 04:52:41;;;;;;;2.53;2.42;;;4.80;67.30;;;;;;5104131;28;20247;-83
2022/01/31 04:55:09;;;;;;;2.10;2.00;;;4.80;67.00;;;;;;5097707;28;20213;-84
2022/01/31 04:57:37;;;;;;;2.35;2.25;;;4.70;66.80;;;;;;5102982;28;20296;-84
2022/01/31 05:00:05;;;;;;;1.80;1.70;;;4.70;66.80;;;;;;5097875;28;20217;-83
2022/01/31 05:02:32;;;;;;;2.15;2.05;;;4.70;67.10;;;;;;5097205;28;20236;-82
2022/01/31 05:04:59;;;;;;;2.00;1.90;;;4.60;66.60;;;;;;5100833;28;20204;-84
2022/01/31 05:07:27;;;;;;;2.03;1.92;;;4.60;66.70;;;;;;5106659;28;20226;-87
2022/01/31 05:09:55;;;;;;;2.30;2.20;;;4.50;67.30;;;;;;5105643;28;20206;-86
2022/01/31 05:12:23;;;;;;;2.72;2.63;;;4.50;67.50;;;;;;5100400;28;20218;-86
2022/01/31 05:14:50;;;;;;;2.40;2.30;;;4.50;67.90;;;;;;5109772;28;20197;-85
2022/01/31 05:17:18;;;;;;;2.25;2.15;;;4.50;68.50;;;;;;5106023;28;20274;-86
2022/01/31 05:19:45;;;;;;;2.55;2.45;;;4.40;68.60;;;;;;5106115;28;20243;-86
2022/01/31 05:22:12;;;;;;;2.75;2.65;;;4.40;69.00;;;;;;5105776;28;20222;-87
2022/01/31 05:24:39;;;;;;;2.78;2.67;;;4.40;69.20;;;;;;5108302;28;20218;-86
2022/01/31 05:27:08;;;;;;;2.13;2.03;;;4.40;69.30;;;;;;5111353;28;20231;-87
2022/01/31 05:29:35;;;;;;;2.30;2.20;;;4.40;69.50;;;;;;5102516;28;20194;-87
2022/01/31 05:32:03;;;;;;;2.15;2.05;;;4.40;69.60;;;;;;5111599;28;20215;-86
2022/01/31 05:34:30;;;;;;;2.60;2.50;;;4.30;69.20;;;;;;5108401;28;20235;-87
2022/01/31 05:36:57;;;;;;;2.08;1.98;;;4.30;68.20;;;;;;5110048;28;20197;-86
2022/01/31 05:39:25;;;;;;;2.13;2.03;;;4.30;68.80;;;;;;5105721;28;20251;-86
2022/01/31 05:41:52;;;;;;;2.35;2.25;;;4.30;69.10;;;;;;5110878;28;20193;-85
2022/01/31 05:44:22;;;;;;;2.60;2.50;;;4.30;69.00;;;;;;5110392;28;20189;-88
2022/01/31 05:46:50;;;;;;;2.30;2.20;;;4.30;69.90;;;;;;5100628;28;20197;-84
2022/01/31 05:49:18;;;;;;;2.63;2.42;;;4.30;69.20;;;;;;5095870;28;20260;-82
2022/01/31 05:51:53;;;;;;;2.20;2.10;;;4.30;68.50;;;;;;5095896;28;20505;-83
2022/01/31 05:54:20;;;;;;;2.65;2.55;;;4.20;68.80;;;;;;5101220;28;20212;-85
2022/01/31 05:56:48;;;;;;;2.17;2.08;;;4.20;69.60;;;;;;5098726;28;20198;-83
2022/01/31 05:59:15;;;;;;;2.20;2.10;;;4.10;69.80;;;;;;5097155;28;20753;-85
2022/01/31 06:01:44;;;;;;;2.15;2.05;;;4.10;69.80;;;;;;5099719;28;20189;-84
2022/01/31 06:04:11;;;;;;;2.20;2.10;;;4.10;71.00;;;;;;5104859;28;20263;-84
2022/01/31 06:06:38;;;;;;;2.35;2.25;;;4.10;71.70;;;;;;5100687;28;20224;-84
2022/01/31 06:09:06;;;;;;;2.53;2.42;;;4.10;70.90;;;;;;5098707;28;20210;-84
2022/01/31 06:11:34;;;;;;;2.63;2.53;;;4.10;70.60;;;;;;5102023;28;20212;-85
2022/01/31 06:14:01;;;;;;;2.63;2.53;;;4.10;69.40;;;;;;5107968;28;20212;-85
2022/01/31 06:16:29;;;;;;;2.70;2.60;;;4.10;69.20;;;;;;5099801;28;20206;-84
2022/01/31 06:18:58;;;;;;;3.40;3.10;;;4.00;69.20;;;;;;5092306;28;20221;-84
2022/01/31 06:21:25;;;;;;;2.72;2.63;;;3.90;69.80;;;;;;5091237;28;20218;-81
2022/01/31 06:23:53;;;;;;;3.50;3.30;;;3.90;70.30;;;;;;5094311;28;20239;-82
2022/01/31 06:26:21;;;;;;;3.10;2.90;;;3.80;70.70;;;;;;5097398;28;20197;-82
2022/01/31 06:28:49;;;;;;;3.40;3.20;;;3.70;70.90;;;;;;5094774;28;20236;-83
2022/01/31 06:31:17;;;;;;;3.13;2.92;;;3.70;71.10;;;;;;5072607;28;20194;-82
2022/01/31 06:33:44;;;;;;;3.55;3.25;;;3.60;71.10;;;;;;5093166;28;20217;-82
2022/01/31 06:36:12;;;;;;;3.38;3.15;;;3.60;71.10;;;;;;5101825;28;20247;-83
2022/01/31 06:38:39;;;;;;;3.28;3.08;;;3.60;71.20;;;;;;5090363;28;21009;-82
2022/01/31 06:41:08;;;;;;;2.55;2.45;;;3.60;71.40;;;;;;5097169;28;20213;-83
2022/01/31 06:43:35;;;;;;;3.78;3.47;;;3.50;71.10;;;;;;5095750;28;20708;-83
2022/01/31 06:46:02;;;;;;;3.97;3.70;;;3.50;71.10;;;;;;5094145;28;20255;-83
2022/01/31 06:48:30;;;;;;;4.05;3.75;;;3.50;71.80;;;;;;5091969;28;20225;-82
2022/01/31 06:50:57;;;;;;;3.13;2.92;;;3.50;71.90;;;;;;5092671;28;20217;-82
2022/01/31 06:53:28;;;;;;;3.50;3.30;;;3.50;71.60;;;;;;5094015;28;20272;-86
2022/01/31 06:55:55;;;;;;;3.05;2.85;;;3.50;71.60;;;;;;5107473;28;20198;-86
2022/01/31 06:58:23;;;;;;;2.90;2.80;;;3.50;71.70;;;;;;5098760;28;20217;-86
2022/01/31 07:00:51;;;;;;;3.10;3.00;;;3.50;71.30;;;;;;5105613;28;20611;-86
2022/01/31 07:03:18;;;;;;;2.55;2.45;;;3.60;71.50;;;;;;5100317;28;20869;-86
2022/01/31 07:05:46;;;;;;;2.97;2.70;;;3.50;71.50;;;;;;5106715;28;20247;-86
2022/01/31 07:08:15;;;;;;;2.90;2.80;;;3.50;71.10;;;;;;5107789;28;20209;-86
2022/01/31 07:10:50;;;;;;;3.22;2.88;;;3.50;71.10;;;;;;5108863;28;20201;-86
2022/01/31 07:13:36;;;;;;;2.88;2.72;;;3.50;72.30;;;;;;5101405;28;20265;-86
2022/01/31 07:16:05;;;;;;;2.72;2.63;;;3.50;70.10;;;;;;5104010;28;20216;-87
2022/01/31 07:18:34;;;;;;;2.78;2.67;;;3.50;70.60;;;;;;5105280;28;20222;-86
2022/01/31 07:21:02;;;;;;;3.67;3.38;;;3.60;71.40;;;;;;5107737;28;20205;-86
2022/01/31 07:23:49;;;;;;;9.20;6.43;;;3.60;71.50;;;;;;5107585;28;20229;-86
2022/01/31 07:26:27;;;;;;;11.50;10.18;;;3.70;71.10;;;;;;5099944;28;20197;-86
2022/01/31 07:28:59;;;;;;;10.75;9.10;;;3.70;70.60;;;;;;5103605;28;20237;-86
2022/01/31 07:31:33;;;;;;;10.02;8.63;;;3.70;70.10;;;;;;5066067;28;20194;-87
2022/01/31 07:34:06;;;;;;;9.65;7.65;;;3.70;70.10;;;;;;5105596;28;20246;-86
2022/01/31 07:36:43;;;;;;;7.47;6.72;;;3.80;70.30;;;;;;5110111;28;20224;-85
2022/01/31 07:39:16;;;;;;;5.97;5.47;;;3.80;70.70;;;;;;5112993;28;20221;-86
2022/01/31 07:41:48;;;;;;;4.85;4.45;;;3.80;71.40;;;;;;5109779;28;20285;-86
2022/01/31 07:47:11;;;;;;;3.88;3.67;;;3.90;72.70;;;;;;5103130;28;20200;-86
2022/01/31 07:49:45;;;;;;;3.17;2.97;;;3.90;70.20;;;;;;5094694;28;20231;-85
2022/01/31 07:52:14;;;;;;;3.40;3.20;;;3.90;69.40;;;;;;5111806;28;20257;-87
2022/01/31 07:54:48;;;;;;;3.10;2.90;;;3.90;69.50;;;;;;5113243;28;20216;-89
2022/01/31 07:57:32;;;;;;;3.15;3.00;;;3.90;69.60;;;;;;5110521;28;20193;-87
2022/01/31 08:00:07;;;;;;;3.35;3.22;;;3.90;70.80;;;;;;5078051;28;20443;-86
2022/01/31 08:02:40;;;;;;;4.10;3.70;;;3.80;71.70;;;;;;5074305;28;20223;-87
2022/01/31 08:05:21;;;;;;;3.65;3.35;;;3.80;72.50;;;;;;5079352;28;20205;-86
2022/01/31 08:07:51;;;;;;;4.43;4.03;;;3.70;73.00;;;;;;5119087;28;20211;-87
2022/01/31 08:10:26;;;;;;;3.80;3.58;;;3.70;72.60;;;;;;5083469;28;20270;-85
2022/01/31 08:16:01;;;;;;;4.95;4.15;;;3.60;72.20;;;;;;5093113;28;20610;-87
2022/01/31 08:18:31;;;;;;;3.50;3.22;;;3.70;72.10;;;;;;5095445;28;20236;-86
2022/01/31 08:21:03;;;;;;;4.40;4.10;;;3.70;72.30;;;;;;5104027;28;20210;-86
2022/01/31 08:23:32;;;;;;;3.30;3.10;;;3.70;72.50;;;;;;5091937;28;20212;-84
2022/01/31 08:26:01;;;;;;;3.00;2.80;;;3.70;73.10;;;;;;5093132;28;20454;-84
2022/01/31 08:28:37;;;;;;;2.55;2.35;;;3.80;73.30;;;;;;5094688;28;20296;-85
2022/01/31 08:31:13;;;;;;;2.95;2.70;;;3.90;72.90;;;;;;5098488;28;20219;-84
2022/01/31 08:33:45;;;;;;;2.90;2.70;;;4.00;72.50;;;;;;5089163;27;20249;-85
2022/01/31 08:36:16;;;;;;;2.72;2.53;;;4.10;72.00;;;;;;5122175;27;20224;-85
2022/01/31 08:38:45;;;;;;;3.38;3.17;;;4.30;71.10;;;;;;5094590;28;20225;-85
2022/01/31 08:41:15;;;;;;;2.67;2.53;;;4.50;70.60;;;;;;5091439;28;20222;-85
2022/01/31 08:43:46;;;;;;;2.80;2.60;;;4.60;71.10;;;;;;5100457;28;20239;-86
2022/01/31 08:46:14;;;;;;;3.05;2.85;;;4.70;71.20;;;;;;5102982;28;20686;-84
2022/01/31 08:48:45;;;;;;;2.83;2.63;;;4.70;70.80;;;;;;5098934;28;20217;-87
2022/01/31 08:51:22;;;;;;;3.30;3.10;;;4.80;70.20;;;;;;5106644;28;20213;-87
2022/01/31 08:53:49;;;;;;;3.33;3.13;;;4.90;70.00;;;;;;5099140;28;20616;-87
2022/01/31 08:56:17;;;;;;;4.15;3.85;;;5.30;70.10;;;;;;5102541;28;20194;-86
2022/01/31 08:58:49;;;;;;;5.20;4.28;;;5.70;70.00;;;;;;5100264;28;20206;-86
2022/01/31 09:01:20;;;;;;;5.57;5.07;;;6.70;71.40;;;;;;5104857;28;20210;-86
2022/01/31 09:04:05;;;;;;;5.32;4.70;;;7.80;69.90;;;;;;5109114;27;20248;-87
2022/01/31 09:06:37;;;;;;;3.90;3.60;;;9.10;67.30;;;;;;5112624;28;20209;-86
2022/01/31 09:09:16;;;;;;;2.63;2.42;;;9.90;65.00;;;;;;5106249;28;20221;-87
2022/01/31 09:11:57;;;;;;;3.63;3.33;;;10.10;62.30;;;;;;5112326;28;20197;-87
2022/01/31 09:14:41;;;;;;;6.70;2.50;;;10.40;62.90;;;;;;5106069;28;20286;-85
2022/01/31 09:17:20;;;;;;;2.45;2.35;;;10.30;60.60;;;;;;5109312;28;20204;-85
2022/01/31 09:20:11;;;;;;;3.33;3.10;;;10.40;61.10;;;;;;5103640;28;20221;-86
2022/01/31 09:46:43;;;;;;;5.68;2.75;;;18.80;48.40;;;;;;5062477;28;20229;-73
2022/01/31 09:49:07;;;;;;;5.95;3.53;;;18.60;50.40;;;;;;5060951;28;20229;-74
2022/01/31 09:51:34;;;;;;;2.97;2.63;;;17.90;51.70;;;;;;5055471;28;20210;-73
2022/01/31 09:54:05;;;;;;;6.55;2.55;;;16.80;52.10;;;;;;5059119;28;20199;-73
2022/01/31 09:56:34;;;;;;;5.97;3.25;;;15.40;53.20;;;;;;5059585;28;20593;-72
2022/01/31 09:59:03;;;;;;;12.85;6.93;;;14.20;56.10;;;;;;5059567;28;20218;-73
2022/01/31 10:01:32;;;;;;;5.28;3.90;;;13.20;57.20;;;;;;5062035;28;20213;-74
2022/01/31 10:04:07;;;;;;;4.68;4.07;;;12.30;58.50;;;;;;5065052;28;20855;-74
2022/01/31 10:06:37;;;;;;;3.95;3.63;;;11.60;60.90;;;;;;5060546;28;20218;-73
2022/01/31 10:09:07;;;;;;;3.25;2.92;;;11.20;62.00;;;;;;5060371;28;20218;-72
2022/01/31 10:11:45;;;;;;;3.65;2.80;;;11.20;61.60;;;;;;5059416;28;20222;-73
2022/01/31 10:17:01;;;;;;;2.53;2.33;;;11.70;61.00;;;;;;5063846;28;20344;-72
2022/01/31 10:19:28;;;;;;;2.30;2.20;;;12.40;59.20;;;;;;5063389;28;20198;-73
2022/01/31 10:22:08;;;;;;;4.45;1.90;;;13.20;57.30;;;;;;5063710;28;20912;-72
2022/01/31 10:24:37;;;;;;;2.20;2.00;;;13.90;56.20;;;;;;5064405;28;20228;-73
2022/01/31 10:27:09;;;;;;;2.90;2.50;;;14.20;56.10;;;;;;5062688;28;20857;-74
2022/01/31 10:29:37;;;;;;;2.30;2.10;;;14.10;55.70;;;;;;5059424;28;20194;-75
2022/01/31 10:32:08;;;;;;;2.45;2.00;;;14.10;55.80;;;;;;5058031;28;20218;-73
2022/01/31 10:34:41;;;;;;;2.30;1.85;;;13.60;55.70;;;;;;5061247;28;20194;-76
2022/01/31 10:37:15;;;;;;;2.05;1.85;;;13.00;55.70;;;;;;5063075;28;20222;-71
2022/01/31 10:54:26;;;;;;;5.97;3.03;;;10.80;63.00;;;;;;5050258;28;20210;-75
2022/01/31 10:56:55;;;;;;;3.95;3.20;;;10.60;61.50;;;;;;5057624;28;20209;-73
2022/01/31 10:59:25;;;;;;;2.65;2.45;;;10.50;61.40;;;;;;5060244;28;20194;-75
2022/01/31 11:01:55;;;;;;;2.85;2.65;;;10.50;60.60;;;;;;5058725;28;20230;-75
2022/01/31 11:04:23;;;;;;;3.42;2.75;;;10.60;59.00;;;;;;5062496;28;20210;-73
2022/01/31 11:06:59;;;;;;;3.67;2.38;;;10.70;58.80;;;;;;5057638;28;20219;-74
2022/01/31 11:09:31;;;;;;;3.05;2.75;;;10.60;60.00;;;;;;5059033;28;20205;-75
2022/01/31 11:11:58;;;;;;;2.53;2.33;;;10.70;62.00;;;;;;5060284;28;20317;-72
2022/01/31 11:14:26;;;;;;;4.63;2.83;;;11.20;61.00;;;;;;5060168;28;20206;-75
2022/01/31 11:16:55;;;;;;;2.88;2.55;;;12.00;59.90;;;;;;5061616;28;20213;-75
2022/01/31 11:19:30;;;;;;;2.53;2.33;;;12.30;59.30;;;;;;5061221;28;20197;-72
2022/01/31 11:22:03;;;;;;;3.28;1.92;;;12.50;59.10;;;;;;5060029;28;20225;-74
2022/01/31 11:24:38;;;;;;;2.60;2.45;;;12.90;59.10;;;;;;5062571;28;20290;-75
2022/01/31 11:27:09;;;;;;;2.38;2.25;;;13.50;58.70;;;;;;5061877;28;20221;-74
2022/01/31 11:29:38;;;;;;;2.65;2.15;;;13.80;58.20;;;;;;5059517;28;20220;-75
2022/01/31 11:32:06;;;;;;;2.15;2.00;;;13.50;57.30;;;;;;5061740;28;20222;-76
2022/01/31 11:34:34;;;;;;;2.65;2.33;;;13.00;57.30;;;;;;5060502;28;20198;-75
2022/01/31 11:37:02;;;;;;;3.95;2.20;;;13.00;58.60;;;;;;5055465;28;20352;-74
2022/01/31 11:39:31;;;;;;;2.75;2.20;;;13.00;58.20;;;;;;5062685;28;20202;-72
2022/01/31 11:42:00;;;;;;;2.63;2.42;;;12.70;58.40;;;;;;5061864;28;20250;-78
2022/01/31 11:44:31;;;;;;;4.03;2.60;;;12.30;58.40;;;;;;5066970;28;20210;-75
2022/01/31 11:46:59;;;;;;;2.47;2.25;;;11.70;59.40;;;;;;5059295;28;20326;-73
2022/01/31 11:49:26;;;;;;;2.55;2.35;;;11.30;59.50;;;;;;5059773;28;21841;-74
2022/01/31 11:52:04;;;;;;;2.38;2.17;;;11.30;59.50;;;;;;5061337;28;20706;-73
2022/01/31 11:54:36;;;;;;;2.47;2.10;;;11.50;59.60;;;;;;5061433;28;20190;-73
2022/01/31 11:57:13;;;;;;;2.97;2.33;;;11.70;59.20;;;;;;5062049;28;20224;-73
2022/01/31 11:59:41;;;;;;;2.33;2.22;;;12.10;59.40;;;;;;5061236;28;20198;-73
2022/01/31 12:02:08;;;;;;;2.00;1.90;;;12.60;58.00;;;;;;5058485;28;20317;-74
2022/01/31 12:04:35;;;;;;;3.65;2.75;;;12.80;56.20;;;;;;5061150;28;20201;-74
2022/01/31 12:07:36;;;;;;;3.38;3.03;;;13.30;56.20;;;;;;5062482;28;20218;-76
2022/01/31 12:10:05;;;;;;;5.22;3.85;;;13.80;56.30;;;;;;5058884;28;20197;-76
2022/01/31 12:12:42;;;;;;;4.25;3.10;;;14.00;56.70;;;;;;5059817;28;20225;-74
2022/01/31 12:15:41;;;;;;;4.45;3.50;;;13.50;56.00;;;;;;5061300;28;20811;-74
2022/01/31 12:18:38;;;;;;;3.35;3.05;;;13.30;57.40;;;;;;5055984;28;20221;-74
2022/01/31 12:23:53;;;;;;;5.63;4.53;;;13.20;57.50;;;;;;5058251;28;20345;-76
2022/01/31 12:26:49;;;;;;;4.15;3.72;;;12.70;58.20;;;;;;5055604;28;20195;-74
2022/01/31 12:29:18;;;;;;;4.75;3.97;;;12.30;57.90;;;;;;5056137;28;20248;-74
2022/01/31 12:31:48;;;;;;;5.20;4.10;;;12.00;58.30;;;;;;5057999;28;20194;-74
2022/01/31 12:34:34;;;;;;;5.07;4.22;;;12.10;59.00;;;;;;5057189;28;20225;-74
2022/01/31 12:37:02;;;;;;;5.03;3.90;;;12.00;59.30;;;;;;5065093;28;20600;-75
2022/01/31 12:40:04;;;;;;;7.68;4.35;;;11.90;59.30;;;;;;5058050;28;20631;-73
2022/01/31 12:45:32;;;;;;;5.57;4.32;;;11.60;60.30;;;;;;5037866;28;20230;-71
2022/01/31 12:48:20;;;;;;;5.18;4.68;;;11.50;60.50;;;;;;5054689;28;20249;-75
2022/01/31 12:51:02;;;;;;;8.43;6.43;;;11.40;60.70;;;;;;5056061;28;20218;-75
2022/01/31 12:53:48;;;;;;;7.93;6.25;;;11.10;61.70;;;;;;5056369;28;20202;-75
2022/01/31 12:56:29;;;;;;;7.85;5.93;;;10.80;62.50;;;;;;5053929;28;20260;-77
2022/01/31 12:59:11;;;;;;;8.02;5.72;;;10.60;63.80;;;;;;5057266;28;20891;-76
2022/01/31 13:01:40;;;;;;;6.90;5.10;;;10.40;63.20;;;;;;5057982;28;20520;-74
2022/01/31 13:04:09;;;;;;;9.57;5.00;;;10.30;63.30;;;;;;5054063;28;20236;-75
2022/01/31 13:06:39;;;;;;;4.95;4.40;;;10.20;63.20;;;;;;5059228;28;20790;-74
2022/01/31 13:09:20;;;;;;;5.25;4.43;;;10.20;63.40;;;;;;5055443;28;20234;-74
2022/01/31 13:11:49;;;;;;;6.07;4.35;;;10.10;63.60;;;;;;5056913;28;20198;-75
2022/01/31 13:14:22;;;;;;;5.22;4.10;;;9.80;63.50;;;;;;5058659;28;21102;-77
2022/01/31 13:17:05;;;;;;;4.88;4.38;;;9.70;64.20;;;;;;5058771;28;20194;-77
2022/01/31 13:19:35;;;;;;;5.93;4.05;;;9.50;64.20;;;;;;5058218;28;20704;-73
2022/01/31 13:22:06;;;;;;;4.68;4.15;;;9.70;64.60;;;;;;5057650;28;20271;-76
2022/01/31 13:24:44;;;;;;;4.35;3.90;;;9.70;64.00;;;;;;5058640;28;20233;-79
2022/01/31 13:27:14;;;;;;;5.05;3.55;;;9.70;63.90;;;;;;5055224;28;20222;-76
2022/01/31 13:29:45;;;;;;;5.05;3.55;;;9.70;64.10;;;;;;5052755;28;20274;-78
2022/01/31 13:32:25;;;;;;;4.05;3.50;;;10.30;63.70;;;;;;5059017;28;20182;-75
2022/01/31 13:34:55;;;;;;;3.95;3.55;;;10.90;62.90;;;;;;5060730;28;20218;-74
2022/01/31 13:37:33;;;;;;;3.42;3.13;;;11.40;62.10;;;;;;5060529;28;20213;-75
2022/01/31 13:40:05;;;;;;;4.10;3.75;;;11.60;59.90;;;;;;5054804;28;20224;-77
2022/01/31 13:42:35;;;;;;;3.47;3.15;;;11.40;59.10;;;;;;5056787;28;20218;-76
2022/01/31 13:45:10;;;;;;;4.00;3.58;;;11.30;60.00;;;;;;5064843;28;20210;-76
2022/01/31 13:47:42;;;;;;;3.45;3.13;;;11.30;59.60;;;;;;5062798;28;20319;-75
2022/01/31 13:50:18;;;;;;;3.17;2.75;;;11.40;59.50;;;;;;5061975;28;20604;-75
2022/01/31 13:52:53;;;;;;;3.38;2.88;;;11.70;59.70;;;;;;5060185;28;20189;-77
2022/01/31 13:55:21;;;;;;;4.88;3.50;;;11.90;59.20;;;;;;5063103;28;20229;-76
2022/01/31 13:57:49;;;;;;;4.65;3.70;;;11.80;58.60;;;;;;5062517;28;20214;-77
2022/01/31 14:00:19;;;;;;;3.58;3.05;;;11.50;59.40;;;;;;5059961;28;20260;-76
2022/01/31 14:03:13;;;;;;;3.63;3.20;;;11.40;60.10;;;;;;5062465;28;20206;-78
2022/01/31 14:05:48;;;;;;;5.75;3.47;;;11.20;60.10;;;;;;5065305;28;20224;-77
2022/01/31 14:08:15;;;;;;;7.75;3.50;;;11.20;60.60;;;;;;5058290;28;20209;-81
2022/01/31 14:10:45;;;;;;;4.07;3.65;;;11.20;60.30;;;;;;5054569;28;20551;-76
2022/01/31 14:13:13;;;;;;;3.67;3.30;;;11.20;61.00;;;;;;5062587;28;20190;-77
2022/01/31 14:15:46;;;;;;;3.60;2.80;;;11.20;60.60;;;;;;5063004;28;20716;-79
2022/01/31 14:18:19;;;;;;;3.08;2.65;;;11.00;59.70;;;;;;5061313;28;20338;-73
2022/01/31 14:20:53;;;;;;;3.25;2.40;;;10.60;60.00;;;;;;5059652;28;20221;-74
2022/01/31 14:23:20;;;;;;;3.90;2.15;;;10.20;59.80;;;;;;5062803;28;20289;-74
2022/01/31 14:25:50;;;;;;;3.33;2.42;;;9.80;60.10;;;;;;5058964;28;20218;-76